Time;durP1;ratioP1;P1;durP2;ratioP2;P2;SDS_P1;SDS_P2;PMS_P1;PMS_P2;Temp;Humidity;BMP_temperature;BMP_pressure;BME280_temperature;BME280_humidity;BME280_pressure;Samples;Min_cycle;Max_cycle;Signal;HPM_P1;HPM_P2
2023/06/06 00:00:47;;;;;;;2.70;2.50;;;19.10;30.20;;;;;;10461503;28;20606;-73
2023/06/06 00:05:51;;;;;;;6.37;2.63;;;19.00;30.20;;;;;;10464345;28;20346;-73
2023/06/06 00:10:55;;;;;;;2.80;2.30;;;18.90;30.70;;;;;;10462180;28;20229;-73
2023/06/06 00:15:59;;;;;;;2.63;2.43;;;18.80;30.60;;;;;;10461983;28;20332;-73
2023/06/06 00:21:04;;;;;;;2.40;2.20;;;18.80;30.60;;;;;;10456465;28;20231;-73
2023/06/06 00:26:07;;;;;;;2.80;2.60;;;18.70;31.20;;;;;;10460902;28;20236;-73
2023/06/06 00:31:10;;;;;;;2.77;2.57;;;18.70;30.90;;;;;;10453901;28;20835;-73
2023/06/06 00:36:15;;;;;;;3.43;2.90;;;18.60;30.80;;;;;;10462345;28;20224;-73
2023/06/06 00:41:18;;;;;;;2.67;2.47;;;18.60;31.40;;;;;;10460022;28;20239;-73
2023/06/06 00:46:22;;;;;;;2.50;2.40;;;18.60;31.20;;;;;;10455083;28;20252;-73
2023/06/06 00:51:27;;;;;;;3.43;2.40;;;18.60;31.30;;;;;;10458104;28;20257;-73
2023/06/06 00:56:31;;;;;;;3.57;2.77;;;18.60;31.90;;;;;;10453023;28;20223;-73
2023/06/06 01:01:36;;;;;;;3.13;2.73;;;18.60;31.40;;;;;;10460927;28;20240;-74
2023/06/06 01:06:41;;;;;;;2.80;2.60;;;18.60;31.70;;;;;;10452858;28;20254;-73
2023/06/06 01:11:53;;;;;;;3.10;2.60;;;18.50;31.70;;;;;;10460844;28;20229;-73
2023/06/06 01:16:57;;;;;;;3.00;2.80;;;18.50;32.40;;;;;;10457768;28;20220;-73
2023/06/06 01:22:03;;;;;;;3.17;2.97;;;18.50;31.60;;;;;;10457463;28;20217;-74
2023/06/06 01:27:07;;;;;;;3.20;2.90;;;18.40;32.00;;;;;;10459667;28;20251;-74
2023/06/06 01:32:16;;;;;;;2.63;2.47;;;18.40;31.40;;;;;;10456592;28;20233;-75
2023/06/06 01:37:31;;;;;;;2.80;2.50;;;18.30;32.40;;;;;;10463507;28;20749;-74
2023/06/06 01:42:39;;;;;;;2.93;2.73;;;18.20;32.60;;;;;;10456776;28;20221;-75
2023/06/06 01:47:44;;;;;;;3.40;2.90;;;18.20;32.40;;;;;;10454138;28;20243;-75
2023/06/06 01:52:49;;;;;;;2.90;2.70;;;18.10;31.90;;;;;;10458837;28;20229;-74
2023/06/06 01:57:52;;;;;;;3.17;2.87;;;18.00;32.10;;;;;;10461255;28;20326;-74
2023/06/06 02:02:56;;;;;;;3.30;3.10;;;18.00;32.00;;;;;;10463107;28;20315;-75
2023/06/06 02:08:00;;;;;;;3.00;2.80;;;17.90;32.30;;;;;;10459350;28;20233;-74
2023/06/06 02:13:03;;;;;;;3.43;3.13;;;17.90;32.80;;;;;;10455069;28;20223;-74
2023/06/06 02:18:07;;;;;;;3.23;3.00;;;17.90;32.70;;;;;;10459917;28;20742;-75
2023/06/06 02:23:11;;;;;;;3.20;3.00;;;17.80;32.60;;;;;;10461889;28;20228;-75
2023/06/06 02:28:15;;;;;;;3.37;3.17;;;17.80;33.30;;;;;;10464848;28;20527;-75
2023/06/06 02:33:19;;;;;;;3.40;3.20;;;17.80;33.00;;;;;;10461102;28;20273;-75
2023/06/06 02:38:24;;;;;;;3.97;3.67;;;17.80;32.90;;;;;;10467280;28;20307;-75
2023/06/06 02:43:27;;;;;;;3.77;3.50;;;17.80;33.40;;;;;;10464249;28;20248;-75
2023/06/06 02:48:30;;;;;;;3.60;3.40;;;17.70;33.00;;;;;;10462413;28;20312;-75
2023/06/06 02:53:35;;;;;;;3.90;3.60;;;17.70;33.30;;;;;;10460258;28;20233;-75
2023/06/06 02:58:38;;;;;;;3.97;3.57;;;17.60;34.10;;;;;;10464250;28;20234;-75
2023/06/06 03:03:42;;;;;;;4.00;3.60;;;17.60;33.30;;;;;;10463111;28;20819;-75
2023/06/06 03:08:47;;;;;;;3.97;3.57;;;17.60;33.40;;;;;;10463735;28;20231;-74
2023/06/06 03:13:50;;;;;;;3.97;3.60;;;17.50;34.20;;;;;;10465319;28;20285;-75
2023/06/06 03:18:53;;;;;;;3.80;3.50;;;17.50;33.70;;;;;;10463374;28;20330;-75
2023/06/06 03:23:58;;;;;;;4.20;3.80;;;17.40;33.70;;;;;;10463729;28;20217;-74
2023/06/06 03:29:01;;;;;;;3.73;3.43;;;17.30;34.10;;;;;;10461005;28;20785;-75
2023/06/06 03:34:06;;;;;;;4.07;3.77;;;17.30;34.10;;;;;;10456627;28;20236;-75
2023/06/06 03:39:10;;;;;;;5.57;3.90;;;17.20;34.00;;;;;;10466633;28;20235;-74
2023/06/06 03:44:13;;;;;;;4.13;3.83;;;17.20;34.00;;;;;;10465436;28;20329;-74
2023/06/06 03:49:17;;;;;;;4.53;4.20;;;17.10;34.00;;;;;;10465287;28;20224;-74
2023/06/06 03:54:22;;;;;;;4.47;4.07;;;17.00;33.90;;;;;;10458409;28;20229;-74
2023/06/06 03:59:26;;;;;;;4.37;3.97;;;16.90;34.60;;;;;;10462608;28;20311;-74
2023/06/06 04:04:30;;;;;;;4.30;3.90;;;16.80;34.20;;;;;;10461335;28;20231;-74
2023/06/06 04:09:36;;;;;;;4.03;3.73;;;16.70;34.40;;;;;;10461082;28;20281;-75
2023/06/06 04:14:39;;;;;;;4.30;3.90;;;16.70;35.40;;;;;;10464698;28;20228;-75
2023/06/06 04:19:42;;;;;;;4.00;3.50;;;16.60;34.90;;;;;;10458334;28;20782;-74
2023/06/06 04:24:47;;;;;;;4.67;4.03;;;16.60;35.10;;;;;;10460526;28;20750;-74
2023/06/06 04:29:51;;;;;;;5.93;4.13;;;16.70;36.20;;;;;;10460826;28;20736;-74
2023/06/06 04:34:57;;;;;;;3.93;3.63;;;16.70;35.80;;;;;;10455368;28;20235;-75
2023/06/06 04:40:04;;;;;;;4.03;3.73;;;16.70;35.50;;;;;;10463208;28;20344;-74
2023/06/06 04:45:09;;;;;;;3.97;3.67;;;16.80;36.20;;;;;;10456870;28;20229;-73
2023/06/06 04:50:14;;;;;;;4.10;3.70;;;16.80;35.80;;;;;;10457178;28;20813;-74
2023/06/06 04:55:22;;;;;;;4.07;3.67;;;16.90;36.20;;;;;;10463567;28;20703;-74
2023/06/06 05:00:25;;;;;;;3.93;3.53;;;16.90;36.40;;;;;;10458839;28;20254;-74
2023/06/06 05:05:28;;;;;;;4.07;3.77;;;17.00;35.90;;;;;;10463140;28;20221;-74
2023/06/06 05:10:33;;;;;;;4.07;3.77;;;17.10;35.90;;;;;;10467382;28;20231;-74
2023/06/06 05:15:36;;;;;;;4.33;4.03;;;17.20;36.60;;;;;;10458776;28;20235;-74
2023/06/06 05:20:39;;;;;;;3.93;3.70;;;17.10;36.00;;;;;;10454283;28;20235;-74
2023/06/06 05:25:44;;;;;;;3.90;3.60;;;17.10;36.10;;;;;;10450450;28;20221;-73
2023/06/06 05:30:47;;;;;;;4.40;4.07;;;17.10;36.50;;;;;;10456661;28;20916;-74
2023/06/06 05:35:50;;;;;;;4.03;3.73;;;17.20;36.30;;;;;;10453820;28;20613;-74
2023/06/06 05:40:55;;;;;;;4.10;3.80;;;17.30;36.30;;;;;;10452308;28;20225;-73
2023/06/06 05:45:58;;;;;;;4.37;3.97;;;17.40;36.80;;;;;;10451749;28;20221;-74
2023/06/06 05:51:01;;;;;;;4.40;4.10;;;17.50;36.30;;;;;;10456847;28;20302;-73
2023/06/06 05:56:07;;;;;;;4.77;4.10;;;17.50;36.40;;;;;;10462614;28;20304;-74
2023/06/06 06:01:12;;;;;;;4.40;4.10;;;17.60;36.90;;;;;;10469199;28;20731;-79
2023/06/06 06:06:16;;;;;;;4.37;3.97;;;17.60;36.30;;;;;;10465806;28;20315;-74
2023/06/06 06:11:21;;;;;;;4.40;4.00;;;17.70;36.30;;;;;;10465915;28;20310;-74
2023/06/06 06:16:24;;;;;;;4.77;4.37;;;17.80;36.90;;;;;;10460402;28;20702;-74
2023/06/06 06:21:27;;;;;;;5.73;5.03;;;17.90;36.80;;;;;;10464972;28;20237;-74
2023/06/06 06:26:32;;;;;;;5.10;4.60;;;17.90;36.70;;;;;;10470432;28;20219;-75
2023/06/06 06:31:35;;;;;;;5.13;4.43;;;18.10;37.40;;;;;;10471270;28;20228;-74
2023/06/06 06:36:39;;;;;;;5.30;4.60;;;18.20;37.20;;;;;;10471102;28;20636;-75
2023/06/06 06:41:43;;;;;;;5.13;4.73;;;18.30;37.00;;;;;;10457995;28;20252;-74
2023/06/06 06:46:46;;;;;;;5.20;4.80;;;18.40;37.00;;;;;;10475042;28;20228;-74
2023/06/06 06:51:51;;;;;;;5.57;4.97;;;18.50;36.70;;;;;;10462759;28;20228;-74
2023/06/06 06:56:56;;;;;;;6.40;4.70;;;18.50;36.60;;;;;;10464130;28;20663;-74
2023/06/06 07:02:00;;;;;;;4.27;3.97;;;18.60;37.00;;;;;;10460346;28;20256;-74
2023/06/06 07:07:03;;;;;;;4.77;4.37;;;18.70;36.70;;;;;;10470063;28;20243;-77
2023/06/06 07:12:09;;;;;;;5.60;5.10;;;18.80;36.60;;;;;;10494740;28;20228;-77
2023/06/06 07:17:15;;;;;;;4.40;4.00;;;18.90;37.20;;;;;;10475141;28;20323;-75
2023/06/06 07:22:18;;;;;;;5.00;4.50;;;19.00;36.60;;;;;;10460920;28;20225;-74
2023/06/06 07:27:22;;;;;;;3.83;3.53;;;19.10;36.50;;;;;;10464302;28;20232;-74
2023/06/06 07:32:25;;;;;;;4.43;4.07;;;19.20;37.00;;;;;;10459107;28;20233;-75
2023/06/06 07:37:28;;;;;;;4.50;4.10;;;19.30;36.90;;;;;;10462500;28;20283;-74
2023/06/06 07:42:33;;;;;;;4.97;4.10;;;19.30;36.60;;;;;;10458217;28;20221;-74
2023/06/06 07:47:36;;;;;;;4.80;4.40;;;19.40;37.40;;;;;;10456235;28;20472;-74
2023/06/06 07:52:43;;;;;;;4.07;3.77;;;19.50;36.80;;;;;;10459624;28;20230;-74
2023/06/06 07:57:50;;;;;;;3.70;3.40;;;19.60;36.70;;;;;;10456433;28;20335;-74
2023/06/06 08:02:53;;;;;;;4.20;3.80;;;19.70;36.90;;;;;;10455979;28;20221;-76
2023/06/06 08:07:58;;;;;;;4.23;3.93;;;19.80;36.50;;;;;;10493495;28;20740;-77
2023/06/06 08:13:03;;;;;;;4.03;3.73;;;20.00;36.50;;;;;;10494608;28;20224;-76
2023/06/06 08:18:07;;;;;;;3.90;3.60;;;20.10;36.60;;;;;;10476786;28;20263;-74
2023/06/06 08:23:10;;;;;;;3.27;3.07;;;20.30;36.80;;;;;;10455402;28;20235;-76
2023/06/06 08:28:15;;;;;;;3.40;3.20;;;20.40;36.90;;;;;;10457085;28;20810;-75
2023/06/06 08:33:18;;;;;;;4.07;3.67;;;20.50;36.90;;;;;;10458834;28;20267;-76
2023/06/06 08:38:21;;;;;;;3.13;2.90;;;20.60;37.00;;;;;;10459715;28;22662;-74
2023/06/06 08:43:28;;;;;;;3.43;3.13;;;20.70;36.90;;;;;;10455630;28;20227;-75
2023/06/06 08:48:37;;;;;;;3.30;3.10;;;20.90;37.30;;;;;;10455435;28;20228;-75
2023/06/06 08:53:44;;;;;;;3.73;3.27;;;21.10;37.50;;;;;;10459866;28;20726;-74
2023/06/06 08:58:50;;;;;;;3.80;3.20;;;21.30;37.00;;;;;;10460516;28;20238;-75
2023/06/06 09:03:56;;;;;;;2.70;2.50;;;21.60;36.30;;;;;;10455936;28;20636;-75
2023/06/06 09:08:59;;;;;;;2.87;2.67;;;21.90;36.50;;;;;;10462423;28;20734;-76
2023/06/06 09:14:05;;;;;;;2.60;2.40;;;22.20;35.80;;;;;;10454747;28;20762;-74
2023/06/06 09:19:09;;;;;;;2.10;2.00;;;22.40;35.60;;;;;;10452178;28;20736;-74
2023/06/06 09:24:17;;;;;;;1.80;1.70;;;22.70;35.00;;;;;;10454675;28;20225;-74
2023/06/06 09:29:22;;;;;;;2.00;1.70;;;22.90;33.80;;;;;;10452109;28;20935;-74
2023/06/06 09:34:26;;;;;;;1.70;1.60;;;23.00;33.60;;;;;;10472747;28;20254;-76
2023/06/06 09:39:29;;;;;;;2.20;2.10;;;23.00;33.20;;;;;;10494500;28;20230;-77
2023/06/06 09:44:34;;;;;;;2.20;2.10;;;23.00;33.20;;;;;;10491944;28;20224;-77
2023/06/06 09:49:38;;;;;;;2.20;2.00;;;22.90;32.70;;;;;;10496163;28;20232;-76
2023/06/06 09:54:43;;;;;;;2.10;2.00;;;22.80;32.70;;;;;;10487031;28;20224;-74
2023/06/06 09:59:48;;;;;;;2.20;2.10;;;22.70;33.00;;;;;;10463996;28;20233;-77
2023/06/06 10:04:53;;;;;;;2.10;2.00;;;22.60;33.00;;;;;;10489724;28;20302;-80
2023/06/06 10:09:57;;;;;;;2.20;2.10;;;22.60;33.00;;;;;;10459585;28;20389;-76
2023/06/06 10:15:03;;;;;;;2.23;2.03;;;22.60;33.00;;;;;;10453978;28;20709;-76
2023/06/06 10:20:09;;;;;;;2.17;2.07;;;22.70;32.90;;;;;;10456256;28;20228;-76
2023/06/06 10:25:14;;;;;;;2.50;2.03;;;22.70;32.90;;;;;;10466532;28;20261;-76
2023/06/06 10:30:30;;;;;;;3.20;2.40;;;22.80;33.10;;;;;;10473716;28;20248;-74
2023/06/06 10:35:35;;;;;;;2.97;2.77;;;22.80;32.80;;;;;;10452157;28;20346;-74
2023/06/06 10:40:42;;;;;;;2.40;2.30;;;22.80;32.70;;;;;;10471774;28;20228;-73
2023/06/06 10:45:50;;;;;;;2.67;2.57;;;22.80;32.90;;;;;;10475347;28;20311;-74
2023/06/06 10:50:54;;;;;;;2.80;2.60;;;22.70;32.50;;;;;;10478259;28;20235;-77
2023/06/06 10:55:57;;;;;;;2.40;2.30;;;22.60;32.60;;;;;;10501057;28;20354;-77
2023/06/06 11:01:04;;;;;;;2.90;2.70;;;22.50;33.20;;;;;;10496509;28;20252;-77
2023/06/06 11:06:12;;;;;;;2.30;2.20;;;22.60;33.00;;;;;;10498806;28;20224;-77
2023/06/06 11:11:35;;;;;;;3.00;2.80;;;22.70;33.10;;;;;;10492778;28;20285;-76
2023/06/06 11:17:01;;;;;;;2.60;2.50;;;22.80;32.60;;;;;;10509048;28;20938;-77
2023/06/06 11:22:05;;;;;;;2.87;2.67;;;22.90;33.00;;;;;;10483056;28;20220;-77
2023/06/06 11:27:10;;;;;;;2.57;2.40;;;23.00;32.90;;;;;;10497912;28;20768;-77
2023/06/06 11:32:15;;;;;;;2.50;2.40;;;23.10;32.20;;;;;;10489553;28;20252;-76
2023/06/06 11:37:19;;;;;;;2.77;2.57;;;23.10;32.30;;;;;;10493340;28;20227;-77
2023/06/06 11:42:22;;;;;;;3.40;2.80;;;23.20;32.30;;;;;;10470776;28;20362;-74
2023/06/06 11:47:33;;;;;;;4.60;3.30;;;23.30;32.30;;;;;;10454719;28;20274;-74
2023/06/06 11:52:47;;;;;;;6.87;4.00;;;23.30;31.30;;;;;;10457670;28;20228;-74
2023/06/06 11:57:51;;;;;;;3.67;3.33;;;23.40;31.30;;;;;;10454184;28;20327;-74
2023/06/06 12:02:59;;;;;;;3.57;3.27;;;23.50;31.40;;;;;;10455179;28;20222;-74
2023/06/06 12:08:03;;;;;;;3.07;2.87;;;23.40;30.70;;;;;;10457706;28;20228;-74
2023/06/06 12:13:06;;;;;;;3.50;3.20;;;23.50;31.60;;;;;;10455182;28;20234;-74
2023/06/06 12:18:10;;;;;;;3.33;3.13;;;23.70;31.30;;;;;;10454662;28;20233;-74
2023/06/06 12:23:27;;;;;;;4.07;3.00;;;23.70;30.70;;;;;;10457182;28;20228;-74
2023/06/06 12:28:31;;;;;;;3.27;3.03;;;23.90;30.30;;;;;;10454990;28;20225;-74
2023/06/06 12:33:48;;;;;;;3.30;3.10;;;23.90;30.60;;;;;;10449950;28;20569;-74
2023/06/06 12:38:59;;;;;;;3.30;3.10;;;24.10;30.00;;;;;;10455054;28;20742;-74
2023/06/06 12:44:06;;;;;;;3.70;3.40;;;24.10;29.50;;;;;;10454215;28;20605;-74
2023/06/06 12:49:11;;;;;;;3.40;2.80;;;24.20;29.90;;;;;;10457372;28;20650;-74
2023/06/06 12:54:14;;;;;;;2.70;2.57;;;24.30;29.80;;;;;;10457458;28;20229;-74
2023/06/06 12:59:17;;;;;;;2.33;2.23;;;24.30;30.00;;;;;;10458114;28;20233;-74
2023/06/06 13:04:22;;;;;;;2.47;2.37;;;24.50;29.70;;;;;;10455196;28;20313;-76
2023/06/06 13:09:27;;;;;;;2.00;1.90;;;24.60;28.60;;;;;;10468017;28;20223;-75
2023/06/06 13:14:31;;;;;;;2.07;1.97;;;24.60;28.90;;;;;;10484902;28;20235;-74
2023/06/06 13:19:36;;;;;;;1.90;1.80;;;24.70;28.90;;;;;;10488355;28;20379;-74
2023/06/06 13:24:39;;;;;;;2.10;2.00;;;24.70;28.50;;;;;;10470388;28;20316;-74
2023/06/06 13:29:42;;;;;;;1.90;1.80;;;24.70;28.50;;;;;;10454544;28;20240;-73
2023/06/06 13:34:47;;;;;;;2.10;2.00;;;24.70;28.50;;;;;;10452528;28;20722;-73
2023/06/06 13:39:50;;;;;;;1.90;1.80;;;24.70;28.50;;;;;;10452097;28;20235;-73
2023/06/06 13:44:53;;;;;;;2.10;2.00;;;24.70;28.50;;;;;;10453506;28;20233;-73
2023/06/06 13:49:58;;;;;;;2.13;2.03;;;24.90;28.60;;;;;;10458366;28;20616;-73
2023/06/06 13:55:03;;;;;;;2.00;1.90;;;25.00;28.70;;;;;;10459105;28;20255;-76
2023/06/06 14:00:08;;;;;;;2.60;2.33;;;25.10;28.70;;;;;;10478062;28;20303;-73
2023/06/06 14:05:13;;;;;;;2.70;2.50;;;25.20;28.80;;;;;;10482622;28;20287;-75
2023/06/06 14:10:16;;;;;;;2.93;1.63;;;25.30;28.40;;;;;;10471801;28;20319;-75
2023/06/06 14:15:19;;;;;;;3.10;2.10;;;25.40;28.90;;;;;;10499147;28;20227;-73
2023/06/06 14:20:32;;;;;;;2.23;2.07;;;25.40;28.30;;;;;;10502042;28;20238;-72
2023/06/06 14:25:35;;;;;;;2.20;2.10;;;25.50;27.60;;;;;;10494681;28;20274;-74
2023/06/06 14:30:38;;;;;;;2.20;2.10;;;25.40;27.80;;;;;;10477052;28;20224;-73
2023/06/06 14:35:43;;;;;;;2.50;2.30;;;25.40;28.00;;;;;;10499236;28;20235;-73
2023/06/06 14:40:47;;;;;;;2.30;2.20;;;25.50;27.90;;;;;;10493328;28;20663;-73
2023/06/06 14:45:50;;;;;;;2.50;2.30;;;25.50;27.70;;;;;;10463517;28;20668;-73
2023/06/06 14:50:54;;;;;;;2.10;2.00;;;25.50;28.10;;;;;;10489865;28;20654;-74
2023/06/06 14:55:58;;;;;;;2.50;2.40;;;25.50;27.50;;;;;;10486438;27;20770;-73
2023/06/06 15:01:11;;;;;;;2.77;2.57;;;25.60;27.80;;;;;;10478070;28;20540;-73
2023/06/06 15:06:16;;;;;;;3.57;2.30;;;25.70;27.40;;;;;;10471186;28;20220;-72
2023/06/06 15:11:19;;;;;;;2.20;2.10;;;25.70;27.00;;;;;;10497944;28;20227;-73
2023/06/06 15:16:22;;;;;;;3.60;2.17;;;25.70;27.30;;;;;;10475955;28;20232;-73
2023/06/06 15:21:27;;;;;;;2.00;1.90;;;25.80;27.00;;;;;;10486382;28;20238;-73
2023/06/06 15:26:31;;;;;;;1.70;1.60;;;25.80;26.50;;;;;;10482926;28;20252;-73
2023/06/06 15:31:34;;;;;;;2.30;2.10;;;25.80;26.50;;;;;;10473160;28;20283;-73
2023/06/06 15:36:39;;;;;;;2.13;1.90;;;25.90;26.50;;;;;;10465622;28;20233;-73
2023/06/06 15:41:42;;;;;;;2.00;1.90;;;25.90;26.20;;;;;;10494919;28;20235;-73
2023/06/06 15:46:45;;;;;;;2.00;1.90;;;25.90;26.40;;;;;;10481996;28;20317;-73
2023/06/06 15:51:50;;;;;;;2.10;2.00;;;26.00;26.50;;;;;;10507449;28;20216;-74
2023/06/06 15:56:53;;;;;;;1.83;1.60;;;26.00;25.80;;;;;;10458492;28;20660;-73
2023/06/06 16:01:57;;;;;;;1.80;1.70;;;26.10;25.90;;;;;;10481206;28;20528;-74
2023/06/06 16:07:01;;;;;;;2.33;2.20;;;26.10;25.90;;;;;;10477786;28;20232;-72
2023/06/06 16:12:06;;;;;;;2.20;2.10;;;26.10;25.80;;;;;;10436328;28;20274;-73
2023/06/06 16:17:09;;;;;;;2.87;2.67;;;26.10;25.50;;;;;;10412349;28;20233;-74
2023/06/06 16:22:13;;;;;;;3.00;2.80;;;26.10;25.90;;;;;;10418263;28;20225;-74
2023/06/06 16:27:16;;;;;;;4.40;4.10;;;26.20;25.90;;;;;;10416769;28;20230;-73
2023/06/06 16:32:19;;;;;;;4.27;3.97;;;26.10;26.00;;;;;;10420223;28;20239;-75
2023/06/06 16:37:24;;;;;;;5.13;4.67;;;26.10;26.20;;;;;;10416388;28;20248;-74
2023/06/06 16:42:27;;;;;;;8.27;7.67;;;26.10;26.10;;;;;;10420148;28;20304;-76
2023/06/06 16:47:31;;;;;;;10.60;9.90;;;26.00;26.20;;;;;;10426482;28;20224;-78
2023/06/06 16:52:36;;;;;;;7.27;6.77;;;26.00;26.40;;;;;;10428537;28;20228;-77
2023/06/06 16:57:40;;;;;;;5.17;4.80;;;25.80;26.30;;;;;;10438045;28;20229;-78
2023/06/06 17:02:47;;;;;;;6.13;5.63;;;25.80;26.40;;;;;;10427313;28;20226;-78
2023/06/06 17:07:52;;;;;;;6.17;5.77;;;25.80;26.30;;;;;;10425548;28;20228;-79
2023/06/06 17:12:56;;;;;;;5.80;5.40;;;25.70;26.20;;;;;;10418498;28;20221;-75
2023/06/06 17:18:00;;;;;;;5.00;3.57;;;25.60;26.20;;;;;;10419684;28;20278;-75
2023/06/06 17:23:04;;;;;;;4.77;4.37;;;25.50;26.40;;;;;;10460902;28;20220;-75
2023/06/06 17:28:07;;;;;;;4.53;4.13;;;25.50;26.40;;;;;;10455635;28;20228;-75
2023/06/06 17:33:11;;;;;;;3.90;3.70;;;25.50;26.40;;;;;;10452745;28;20224;-75
2023/06/06 17:38:15;;;;;;;4.10;3.80;;;25.40;26.40;;;;;;10467444;28;20238;-75
2023/06/06 17:43:19;;;;;;;3.73;3.40;;;25.30;26.30;;;;;;10476134;28;20228;-77
2023/06/06 17:48:22;;;;;;;4.80;3.50;;;25.20;26.50;;;;;;10487019;28;20233;-75
2023/06/06 17:53:26;;;;;;;3.97;3.50;;;25.20;26.70;;;;;;10496523;28;20216;-75
2023/06/06 17:58:30;;;;;;;3.53;3.27;;;25.10;26.80;;;;;;10490587;28;20307;-74
2023/06/06 18:03:33;;;;;;;4.63;3.43;;;25.20;27.00;;;;;;10490250;28;20335;-75
2023/06/06 18:08:38;;;;;;;3.67;3.40;;;25.10;26.90;;;;;;10495403;28;20311;-75
2023/06/06 18:13:41;;;;;;;3.50;3.30;;;25.10;27.10;;;;;;10487015;28;20298;-74
2023/06/06 18:18:44;;;;;;;3.80;3.50;;;25.10;27.10;;;;;;10477036;28;20236;-75
2023/06/06 18:23:50;;;;;;;4.50;3.60;;;25.10;27.20;;;;;;10513061;28;20255;-74
2023/06/06 18:28:56;;;;;;;4.53;3.30;;;25.10;27.20;;;;;;10491818;28;20227;-75
2023/06/06 18:34:00;;;;;;;3.40;3.20;;;25.00;27.20;;;;;;10474022;28;20230;-76
2023/06/06 18:39:04;;;;;;;3.10;2.90;;;24.90;27.20;;;;;;10469435;28;20315;-78
2023/06/06 18:44:07;;;;;;;3.23;2.93;;;24.90;27.50;;;;;;10484756;28;20227;-78
2023/06/06 18:49:11;;;;;;;3.00;2.80;;;24.90;27.40;;;;;;10505401;28;20265;-78
2023/06/06 18:54:16;;;;;;;3.40;3.20;;;24.80;27.40;;;;;;10484230;28;20307;-78
2023/06/06 18:59:21;;;;;;;3.93;2.93;;;24.70;27.40;;;;;;10478537;28;20236;-77
2023/06/06 19:04:24;;;;;;;3.00;2.80;;;24.60;27.40;;;;;;10468735;28;20226;-78
2023/06/06 19:09:29;;;;;;;3.07;2.87;;;24.50;27.50;;;;;;10482274;28;20255;-77
2023/06/06 19:14:32;;;;;;;3.13;2.93;;;24.30;27.70;;;;;;10480214;28;20259;-77
2023/06/06 19:19:36;;;;;;;3.00;2.70;;;24.10;27.80;;;;;;10482546;28;20220;-77
2023/06/06 19:24:41;;;;;;;3.03;2.40;;;24.10;28.10;;;;;;10483516;28;20220;-78
2023/06/06 19:29:45;;;;;;;2.50;2.33;;;24.00;28.00;;;;;;10477885;28;20285;-78
2023/06/06 19:34:48;;;;;;;2.73;2.53;;;23.90;27.90;;;;;;10489475;28;20244;-77
2023/06/06 19:39:53;;;;;;;2.87;2.67;;;23.90;27.90;;;;;;10490155;28;20312;-77
2023/06/06 19:44:57;;;;;;;3.00;2.80;;;23.80;27.90;;;;;;10475878;28;20223;-77
2023/06/06 19:50:00;;;;;;;2.70;2.50;;;23.70;27.80;;;;;;10483127;28;20235;-77
2023/06/06 19:55:06;;;;;;;2.77;2.57;;;23.60;27.80;;;;;;10465665;28;20240;-74
2023/06/06 20:00:10;;;;;;;2.77;2.57;;;23.40;28.30;;;;;;10468527;28;20232;-77
2023/06/06 20:05:14;;;;;;;2.87;2.67;;;23.30;28.40;;;;;;10465603;28;20224;-75
2023/06/06 20:10:21;;;;;;;2.20;2.10;;;23.20;28.40;;;;;;10448603;28;20251;-76
2023/06/06 20:15:24;;;;;;;2.60;2.40;;;23.10;28.60;;;;;;10469584;28;20285;-76
2023/06/06 20:20:27;;;;;;;2.63;2.50;;;22.90;28.60;;;;;;10466854;28;20228;-76
2023/06/06 20:25:32;;;;;;;2.33;2.13;;;22.80;28.70;;;;;;10460176;28;20633;-76
2023/06/06 20:30:37;;;;;;;2.57;2.47;;;22.70;29.10;;;;;;10464107;28;20220;-77
2023/06/06 20:35:41;;;;;;;2.17;2.07;;;22.60;29.40;;;;;;10452646;28;20224;-77
2023/06/06 20:40:46;;;;;;;2.40;2.30;;;22.50;29.20;;;;;;10457510;28;20307;-76
2023/06/06 20:45:52;;;;;;;2.30;2.20;;;22.50;29.80;;;;;;10460069;28;20228;-77
2023/06/06 20:50:58;;;;;;;2.80;2.60;;;22.50;29.60;;;;;;10465214;28;20228;-76
2023/06/06 20:56:04;;;;;;;2.90;2.70;;;22.40;29.60;;;;;;10466896;28;20342;-77
2023/06/06 21:01:07;;;;;;;2.50;2.30;;;22.50;29.90;;;;;;10461406;28;20347;-75
2023/06/06 21:06:11;;;;;;;2.80;2.60;;;22.50;29.70;;;;;;10463108;28;20266;-76
2023/06/06 21:11:17;;;;;;;3.00;2.80;;;22.40;29.60;;;;;;10461360;28;20285;-75
2023/06/06 21:16:20;;;;;;;3.07;2.87;;;22.40;29.90;;;;;;10452301;28;20224;-74
2023/06/06 21:21:23;;;;;;;3.00;2.70;;;22.40;29.80;;;;;;10474275;28;20228;-75
2023/06/06 21:26:28;;;;;;;3.83;3.53;;;22.30;29.70;;;;;;10480537;28;20306;-75
2023/06/06 21:31:31;;;;;;;3.60;3.30;;;22.30;29.90;;;;;;10480578;28;20315;-75
2023/06/06 21:36:37;;;;;;;3.00;2.80;;;22.20;29.70;;;;;;10466499;28;20230;-77
2023/06/06 21:41:42;;;;;;;3.00;2.70;;;22.10;29.80;;;;;;10469523;28;20256;-76
2023/06/06 21:46:46;;;;;;;2.50;2.40;;;21.90;30.10;;;;;;10492363;28;20858;-77
2023/06/06 21:51:49;;;;;;;2.93;2.73;;;21.90;30.10;;;;;;10480681;28;20282;-77
2023/06/06 21:56:53;;;;;;;2.80;2.60;;;21.80;30.00;;;;;;10467422;28;20229;-77
2023/06/06 22:01:57;;;;;;;2.80;2.60;;;21.70;30.30;;;;;;10463633;28;20248;-77
2023/06/06 22:07:02;;;;;;;2.77;2.57;;;21.60;30.00;;;;;;10463254;28;20228;-77
2023/06/06 22:12:08;;;;;;;2.90;2.77;;;21.40;30.20;;;;;;10467031;28;20220;-78
2023/06/06 22:17:12;;;;;;;2.93;2.73;;;21.20;31.00;;;;;;10475799;28;20236;-77
2023/06/06 22:22:16;;;;;;;3.13;2.83;;;21.00;30.70;;;;;;10485266;28;20340;-77
2023/06/06 22:27:27;;;;;;;3.03;2.83;;;20.90;30.90;;;;;;10475526;28;20250;-76
2023/06/06 22:32:34;;;;;;;2.87;2.67;;;20.80;31.30;;;;;;10467987;28;20224;-76
2023/06/06 22:37:40;;;;;;;2.60;2.40;;;20.70;31.10;;;;;;10481388;28;20793;-77
2023/06/06 22:42:45;;;;;;;2.60;2.40;;;20.60;31.90;;;;;;10451240;28;20895;-77
2023/06/06 22:47:48;;;;;;;3.00;2.80;;;20.50;31.80;;;;;;10522081;28;20270;-77
2023/06/06 22:52:51;;;;;;;3.10;2.90;;;20.30;31.50;;;;;;10544188;28;20259;-77
2023/06/06 22:57:56;;;;;;;3.03;2.83;;;20.20;31.70;;;;;;10511063;28;20224;-77
2023/06/06 23:02:59;;;;;;;3.57;3.30;;;20.00;32.40;;;;;;10500591;28;20628;-77
2023/06/06 23:08:03;;;;;;;3.83;3.63;;;19.90;32.60;;;;;;10497334;28;20228;-77
2023/06/06 23:13:07;;;;;;;3.77;3.40;;;19.90;32.90;;;;;;10476879;28;20262;-75
2023/06/06 23:18:11;;;;;;;3.97;3.13;;;19.80;33.20;;;;;;10462868;28;20227;-75
2023/06/06 23:23:14;;;;;;;3.93;3.63;;;19.80;33.00;;;;;;10462210;28;20225;-75
2023/06/06 23:28:19;;;;;;;3.70;3.30;;;19.80;33.20;;;;;;10472269;28;20228;-77
2023/06/06 23:33:23;;;;;;;3.47;3.27;;;19.80;33.70;;;;;;10470745;28;20759;-77
2023/06/06 23:38:26;;;;;;;3.70;3.50;;;19.80;33.20;;;;;;10467799;28;20292;-77
2023/06/06 23:43:31;;;;;;;3.37;3.17;;;19.70;33.10;;;;;;10472055;28;20256;-77
2023/06/06 23:48:37;;;;;;;3.23;3.03;;;19.70;33.70;;;;;;10468149;28;20221;-77
2023/06/06 23:53:40;;;;;;;3.23;2.90;;;19.60;33.30;;;;;;10479776;28;20641;-77
2023/06/06 23:58:45;;;;;;;3.30;3.00;;;19.60;33.00;;;;;;10473378;28;20244;-77
